sensor_id;sensor_type;location;lat;lon;timestamp;P1;durP1;ratioP1;P2;durP2;ratioP2
65658;SDS011;60181;53.258;6.932;2022-12-15T00:03:41;21.80;;;9.10;;
65658;SDS011;60181;53.258;6.932;2022-12-15T00:08:09;21.80;;;9.10;;
65658;SDS011;60181;53.258;6.932;2022-12-15T00:12:37;21.80;;;9.10;;
65658;SDS011;60181;53.258;6.932;2022-12-15T00:17:05;18.10;;;8.80;;
65658;SDS011;60181;53.258;6.932;2022-12-15T00:21:33;18.10;;;8.80;;
65658;SDS011;60181;53.258;6.932;2022-12-15T00:26:01;20.80;;;9.10;;
65658;SDS011;60181;53.258;6.932;2022-12-15T00:30:29;20.80;;;9.10;;
65658;SDS011;60181;53.258;6.932;2022-12-15T00:34:57;18.60;;;8.60;;
65658;SDS011;60181;53.258;6.932;2022-12-15T00:39:25;18.60;;;8.60;;
65658;SDS011;60181;53.258;6.932;2022-12-15T00:43:53;18.70;;;8.90;;
65658;SDS011;60181;53.258;6.932;2022-12-15T00:48:21;18.70;;;8.90;;
65658;SDS011;60181;53.258;6.932;2022-12-15T00:52:49;18.70;;;8.90;;
65658;SDS011;60181;53.258;6.932;2022-12-15T00:57:17;18.80;;;8.70;;
65658;SDS011;60181;53.258;6.932;2022-12-15T01:01:45;18.80;;;8.70;;
65658;SDS011;60181;53.258;6.932;2022-12-15T01:06:17;19.30;;;8.20;;
65658;SDS011;60181;53.258;6.932;2022-12-15T01:10:41;19.30;;;8.20;;
65658;SDS011;60181;53.258;6.932;2022-12-15T01:15:09;16.70;;;7.80;;
65658;SDS011;60181;53.258;6.932;2022-12-15T01:19:37;16.70;;;7.80;;
65658;SDS011;60181;53.258;6.932;2022-12-15T01:24:05;17.70;;;7.80;;
65658;SDS011;60181;53.258;6.932;2022-12-15T01:28:33;17.70;;;7.80;;
65658;SDS011;60181;53.258;6.932;2022-12-15T01:33:01;17.70;;;7.80;;
65658;SDS011;60181;53.258;6.932;2022-12-15T01:37:29;15.40;;;7.00;;
65658;SDS011;60181;53.258;6.932;2022-12-15T01:41:57;15.40;;;7.00;;
65658;SDS011;60181;53.258;6.932;2022-12-15T01:46:25;15.00;;;7.10;;
65658;SDS011;60181;53.258;6.932;2022-12-15T01:51:12;15.00;;;7.10;;
65658;SDS011;60181;53.258;6.932;2022-12-15T01:55:21;15.40;;;6.70;;
65658;SDS011;60181;53.258;6.932;2022-12-15T01:59:51;15.40;;;6.70;;
65658;SDS011;60181;53.258;6.932;2022-12-15T02:04:18;15.90;;;6.80;;
65658;SDS011;60181;53.258;6.932;2022-12-15T02:08:45;15.90;;;6.80;;
65658;SDS011;60181;53.258;6.932;2022-12-15T02:17:54;19.70;;;6.50;;
65658;SDS011;60181;53.258;6.932;2022-12-15T02:26:44;17.40;;;5.80;;
65658;SDS011;60181;53.258;6.932;2022-12-15T02:31:11;17.40;;;5.80;;
65658;SDS011;60181;53.258;6.932;2022-12-15T02:35:39;12.70;;;5.70;;
65658;SDS011;60181;53.258;6.932;2022-12-15T02:40:01;12.70;;;5.70;;
65658;SDS011;60181;53.258;6.932;2022-12-15T02:44:30;11.40;;;5.20;;
65658;SDS011;60181;53.258;6.932;2022-12-15T02:57:54;12.00;;;5.60;;
65658;SDS011;60181;53.258;6.932;2022-12-15T03:02:24;12.00;;;5.60;;
65658;SDS011;60181;53.258;6.932;2022-12-15T03:06:52;10.50;;;5.10;;
65658;SDS011;60181;53.258;6.932;2022-12-15T03:11:17;10.50;;;5.10;;
65658;SDS011;60181;53.258;6.932;2022-12-15T03:15:45;11.70;;;5.20;;
65658;SDS011;60181;53.258;6.932;2022-12-15T03:20:13;11.70;;;5.20;;
65658;SDS011;60181;53.258;6.932;2022-12-15T03:24:41;11.30;;;4.90;;
65658;SDS011;60181;53.258;6.932;2022-12-15T03:29:09;11.30;;;4.90;;
65658;SDS011;60181;53.258;6.932;2022-12-15T03:33:37;10.20;;;4.70;;
65658;SDS011;60181;53.258;6.932;2022-12-15T03:38:05;10.20;;;4.70;;
65658;SDS011;60181;53.258;6.932;2022-12-15T03:42:33;10.20;;;4.70;;
65658;SDS011;60181;53.258;6.932;2022-12-15T03:47:01;8.80;;;4.20;;
65658;SDS011;60181;53.258;6.932;2022-12-15T03:51:29;8.80;;;4.20;;
65658;SDS011;60181;53.258;6.932;2022-12-15T03:55:57;10.10;;;4.40;;
65658;SDS011;60181;53.258;6.932;2022-12-15T04:00:25;10.10;;;4.40;;
65658;SDS011;60181;53.258;6.932;2022-12-15T04:04:53;8.50;;;4.00;;
65658;SDS011;60181;53.258;6.932;2022-12-15T04:09:21;8.50;;;4.00;;
65658;SDS011;60181;53.258;6.932;2022-12-15T04:13:49;8.70;;;4.20;;
65658;SDS011;60181;53.258;6.932;2022-12-15T04:18:17;8.70;;;4.20;;
65658;SDS011;60181;53.258;6.932;2022-12-15T04:22:46;8.70;;;4.20;;
65658;SDS011;60181;53.258;6.932;2022-12-15T04:27:13;9.30;;;4.40;;
65658;SDS011;60181;53.258;6.932;2022-12-15T04:31:41;9.30;;;4.40;;
65658;SDS011;60181;53.258;6.932;2022-12-15T04:36:09;8.20;;;3.80;;
65658;SDS011;60181;53.258;6.932;2022-12-15T04:40:37;8.20;;;3.80;;
65658;SDS011;60181;53.258;6.932;2022-12-15T04:45:05;7.20;;;4.00;;
65658;SDS011;60181;53.258;6.932;2022-12-15T04:49:33;7.20;;;4.00;;
65658;SDS011;60181;53.258;6.932;2022-12-15T04:54:01;8.50;;;4.20;;
65658;SDS011;60181;53.258;6.932;2022-12-15T04:58:29;8.50;;;4.20;;
65658;SDS011;60181;53.258;6.932;2022-12-15T05:03:02;8.50;;;4.20;;
65658;SDS011;60181;53.258;6.932;2022-12-15T05:07:25;7.80;;;4.00;;
65658;SDS011;60181;53.258;6.932;2022-12-15T05:11:53;7.80;;;4.00;;
65658;SDS011;60181;53.258;6.932;2022-12-15T05:16:21;7.50;;;3.60;;
65658;SDS011;60181;53.258;6.932;2022-12-15T05:20:49;7.50;;;3.60;;
65658;SDS011;60181;53.258;6.932;2022-12-15T05:25:17;8.10;;;3.80;;
65658;SDS011;60181;53.258;6.932;2022-12-15T05:29:45;8.10;;;3.80;;
65658;SDS011;60181;53.258;6.932;2022-12-15T05:34:13;7.40;;;3.70;;
65658;SDS011;60181;53.258;6.932;2022-12-15T05:38:41;7.40;;;3.70;;
65658;SDS011;60181;53.258;6.932;2022-12-15T05:43:09;7.40;;;3.70;;
65658;SDS011;60181;53.258;6.932;2022-12-15T05:47:37;8.20;;;3.50;;
65658;SDS011;60181;53.258;6.932;2022-12-15T05:52:05;8.20;;;3.50;;
65658;SDS011;60181;53.258;6.932;2022-12-15T05:56:33;7.70;;;3.60;;
65658;SDS011;60181;53.258;6.932;2022-12-15T06:01:02;7.70;;;3.60;;
65658;SDS011;60181;53.258;6.932;2022-12-15T06:05:28;7.80;;;3.80;;
65658;SDS011;60181;53.258;6.932;2022-12-15T06:09:57;7.80;;;3.80;;
65658;SDS011;60181;53.258;6.932;2022-12-15T06:14:24;8.20;;;3.60;;
65658;SDS011;60181;53.258;6.932;2022-12-15T06:18:54;8.20;;;3.60;;
65658;SDS011;60181;53.258;6.932;2022-12-15T06:23:20;8.10;;;3.90;;
65658;SDS011;60181;53.258;6.932;2022-12-15T06:27:48;8.10;;;3.90;;
65658;SDS011;60181;53.258;6.932;2022-12-15T06:32:16;8.10;;;3.90;;
65658;SDS011;60181;53.258;6.932;2022-12-15T06:36:44;7.90;;;3.70;;
65658;SDS011;60181;53.258;6.932;2022-12-15T06:41:14;7.90;;;3.70;;
65658;SDS011;60181;53.258;6.932;2022-12-15T06:45:46;11.20;;;4.10;;
65658;SDS011;60181;53.258;6.932;2022-12-15T06:50:08;11.20;;;4.10;;
65658;SDS011;60181;53.258;6.932;2022-12-15T06:54:36;10.20;;;4.40;;
65658;SDS011;60181;53.258;6.932;2022-12-15T06:59:05;10.20;;;4.40;;
65658;SDS011;60181;53.258;6.932;2022-12-15T07:03:33;11.70;;;4.70;;
65658;SDS011;60181;53.258;6.932;2022-12-15T07:08:00;11.70;;;4.70;;
65658;SDS011;60181;53.258;6.932;2022-12-15T07:12:28;11.70;;;4.70;;
65658;SDS011;60181;53.258;6.932;2022-12-15T07:16:56;11.30;;;4.50;;
65658;SDS011;60181;53.258;6.932;2022-12-15T07:21:24;11.30;;;4.50;;
65658;SDS011;60181;53.258;6.932;2022-12-15T07:25:52;10.40;;;4.50;;
65658;SDS011;60181;53.258;6.932;2022-12-15T07:30:20;10.40;;;4.50;;
65658;SDS011;60181;53.258;6.932;2022-12-15T07:34:48;8.50;;;4.20;;
65658;SDS011;60181;53.258;6.932;2022-12-15T07:39:16;8.50;;;4.20;;
65658;SDS011;60181;53.258;6.932;2022-12-15T07:43:44;9.00;;;4.50;;
65658;SDS011;60181;53.258;6.932;2022-12-15T07:48:12;9.00;;;4.50;;
65658;SDS011;60181;53.258;6.932;2022-12-15T07:52:40;9.00;;;4.50;;
65658;SDS011;60181;53.258;6.932;2022-12-15T07:57:08;6.40;;;3.50;;
65658;SDS011;60181;53.258;6.932;2022-12-15T08:01:36;6.40;;;3.50;;
65658;SDS011;60181;53.258;6.932;2022-12-15T08:06:05;7.90;;;3.40;;
65658;SDS011;60181;53.258;6.932;2022-12-15T08:10:32;7.90;;;3.40;;
65658;SDS011;60181;53.258;6.932;2022-12-15T08:15:00;6.80;;;3.60;;
65658;SDS011;60181;53.258;6.932;2022-12-15T08:19:28;6.80;;;3.60;;
65658;SDS011;60181;53.258;6.932;2022-12-15T08:23:56;5.80;;;3.10;;
65658;SDS011;60181;53.258;6.932;2022-12-15T08:28:24;5.80;;;3.10;;
65658;SDS011;60181;53.258;6.932;2022-12-15T08:32:52;5.80;;;3.10;;
65658;SDS011;60181;53.258;6.932;2022-12-15T08:37:20;7.10;;;3.40;;
65658;SDS011;60181;53.258;6.932;2022-12-15T08:41:48;7.10;;;3.40;;
65658;SDS011;60181;53.258;6.932;2022-12-15T08:46:17;6.20;;;2.90;;
65658;SDS011;60181;53.258;6.932;2022-12-15T08:50:44;6.20;;;2.90;;
65658;SDS011;60181;53.258;6.932;2022-12-15T08:55:12;6.10;;;3.10;;
65658;SDS011;60181;53.258;6.932;2022-12-15T08:59:40;6.10;;;3.10;;
65658;SDS011;60181;53.258;6.932;2022-12-15T09:04:08;5.60;;;2.90;;
65658;SDS011;60181;53.258;6.932;2022-12-15T09:08:36;5.60;;;2.90;;
65658;SDS011;60181;53.258;6.932;2022-12-15T09:13:04;5.60;;;2.90;;
65658;SDS011;60181;53.258;6.932;2022-12-15T09:17:32;6.50;;;3.20;;
65658;SDS011;60181;53.258;6.932;2022-12-15T09:22:00;6.50;;;3.20;;
65658;SDS011;60181;53.258;6.932;2022-12-15T09:26:29;10.80;;;2.90;;
65658;SDS011;60181;53.258;6.932;2022-12-15T09:31:09;10.80;;;2.90;;
65658;SDS011;60181;53.258;6.932;2022-12-15T09:35:27;8.50;;;2.80;;
65658;SDS011;60181;53.258;6.932;2022-12-15T09:39:52;8.50;;;2.80;;
65658;SDS011;60181;53.258;6.932;2022-12-15T09:44:21;12.60;;;3.00;;
65658;SDS011;60181;53.258;6.932;2022-12-15T09:48:48;12.60;;;3.00;;
65658;SDS011;60181;53.258;6.932;2022-12-15T09:53:16;10.00;;;2.90;;
65658;SDS011;60181;53.258;6.932;2022-12-15T10:02:20;10.00;;;2.90;;
65658;SDS011;60181;53.258;6.932;2022-12-15T10:11:18;7.50;;;2.90;;
65658;SDS011;60181;53.258;6.932;2022-12-15T10:20:17;6.90;;;2.90;;
65658;SDS011;60181;53.258;6.932;2022-12-15T10:24:32;6.30;;;2.60;;
65658;SDS011;60181;53.258;6.932;2022-12-15T10:33:35;6.70;;;2.70;;
65658;SDS011;60181;53.258;6.932;2022-12-15T10:37:57;6.70;;;2.70;;
65658;SDS011;60181;53.258;6.932;2022-12-15T10:42:25;6.70;;;2.70;;
65658;SDS011;60181;53.258;6.932;2022-12-15T10:46:54;6.00;;;2.60;;
65658;SDS011;60181;53.258;6.932;2022-12-15T10:51:23;6.00;;;2.60;;
65658;SDS011;60181;53.258;6.932;2022-12-15T10:55:48;5.30;;;2.60;;
65658;SDS011;60181;53.258;6.932;2022-12-15T11:05:04;4.40;;;2.40;;
65658;SDS011;60181;53.258;6.932;2022-12-15T11:13:40;6.00;;;2.80;;
65658;SDS011;60181;53.258;6.932;2022-12-15T11:31:39;5.90;;;2.60;;
65658;SDS011;60181;53.258;6.932;2022-12-15T11:40:30;5.80;;;2.90;;
65658;SDS011;60181;53.258;6.932;2022-12-15T11:45:01;4.90;;;2.30;;
65658;SDS011;60181;53.258;6.932;2022-12-15T11:58:35;5.80;;;2.60;;
65658;SDS011;60181;53.258;6.932;2022-12-15T12:02:50;5.80;;;2.60;;
65658;SDS011;60181;53.258;6.932;2022-12-15T12:07:25;5.70;;;2.50;;
65658;SDS011;60181;53.258;6.932;2022-12-15T12:11:47;5.70;;;2.50;;
65658;SDS011;60181;53.258;6.932;2022-12-15T12:20:48;4.90;;;2.50;;
65658;SDS011;60181;53.258;6.932;2022-12-15T12:25:13;5.40;;;2.60;;
65658;SDS011;60181;53.258;6.932;2022-12-15T12:29:45;5.40;;;2.60;;
65658;SDS011;60181;53.258;6.932;2022-12-15T12:34:14;5.80;;;2.70;;
65658;SDS011;60181;53.258;6.932;2022-12-15T12:38:34;5.80;;;2.70;;
65658;SDS011;60181;53.258;6.932;2022-12-15T12:43:00;5.80;;;2.70;;
65658;SDS011;60181;53.258;6.932;2022-12-15T12:47:29;5.10;;;2.40;;
65658;SDS011;60181;53.258;6.932;2022-12-15T12:51:56;5.10;;;2.40;;
65658;SDS011;60181;53.258;6.932;2022-12-15T12:56:28;7.00;;;2.40;;
65658;SDS011;60181;53.258;6.932;2022-12-15T13:05:30;7.10;;;2.60;;
65658;SDS011;60181;53.258;6.932;2022-12-15T13:09:48;7.10;;;2.60;;
65658;SDS011;60181;53.258;6.932;2022-12-15T13:14:19;3.90;;;2.10;;
65658;SDS011;60181;53.258;6.932;2022-12-15T13:18:54;3.90;;;2.10;;
65658;SDS011;60181;53.258;6.932;2022-12-15T13:27:40;5.80;;;2.30;;
65658;SDS011;60181;53.258;6.932;2022-12-15T13:32:21;5.80;;;2.30;;
65658;SDS011;60181;53.258;6.932;2022-12-15T13:41:20;5.40;;;2.40;;
65658;SDS011;60181;53.258;6.932;2022-12-15T13:45:33;4.50;;;2.30;;
65658;SDS011;60181;53.258;6.932;2022-12-15T13:54:32;6.40;;;2.30;;
65658;SDS011;60181;53.258;6.932;2022-12-15T13:58:58;6.40;;;2.30;;
65658;SDS011;60181;53.258;6.932;2022-12-15T14:03:24;3.90;;;2.20;;
65658;SDS011;60181;53.258;6.932;2022-12-15T14:07:55;3.90;;;2.20;;
65658;SDS011;60181;53.258;6.932;2022-12-15T14:12:20;3.90;;;2.20;;
65658;SDS011;60181;53.258;6.932;2022-12-15T14:16:51;4.40;;;2.10;;
65658;SDS011;60181;53.258;6.932;2022-12-15T14:21:20;4.40;;;2.10;;
65658;SDS011;60181;53.258;6.932;2022-12-15T14:25:54;4.40;;;2.30;;
65658;SDS011;60181;53.258;6.932;2022-12-15T14:30:19;4.40;;;2.30;;
65658;SDS011;60181;53.258;6.932;2022-12-15T14:34:40;4.60;;;2.50;;
65658;SDS011;60181;53.258;6.932;2022-12-15T14:39:13;4.60;;;2.50;;
65658;SDS011;60181;53.258;6.932;2022-12-15T14:43:36;4.70;;;2.50;;
65658;SDS011;60181;53.258;6.932;2022-12-15T14:48:07;4.70;;;2.50;;
65658;SDS011;60181;53.258;6.932;2022-12-15T14:52:36;4.70;;;2.50;;
65658;SDS011;60181;53.258;6.932;2022-12-15T14:57:01;7.60;;;2.30;;
65658;SDS011;60181;53.258;6.932;2022-12-15T15:05:57;4.40;;;2.20;;
65658;SDS011;60181;53.258;6.932;2022-12-15T15:10:27;4.40;;;2.20;;
65658;SDS011;60181;53.258;6.932;2022-12-15T15:14:59;5.60;;;2.20;;
65658;SDS011;60181;53.258;6.932;2022-12-15T15:19:20;5.60;;;2.20;;
65658;SDS011;60181;53.258;6.932;2022-12-15T15:23:57;4.60;;;2.10;;
65658;SDS011;60181;53.258;6.932;2022-12-15T15:32:56;4.60;;;2.10;;
65658;SDS011;60181;53.258;6.932;2022-12-15T15:37:16;4.20;;;2.20;;
65658;SDS011;60181;53.258;6.932;2022-12-15T15:41:40;4.20;;;2.20;;
65658;SDS011;60181;53.258;6.932;2022-12-15T15:46:15;4.40;;;2.20;;
65658;SDS011;60181;53.258;6.932;2022-12-15T15:50:41;4.40;;;2.20;;
65658;SDS011;60181;53.258;6.932;2022-12-15T15:55:04;3.70;;;2.30;;
65658;SDS011;60181;53.258;6.932;2022-12-15T15:59:32;3.70;;;2.30;;
65658;SDS011;60181;53.258;6.932;2022-12-15T16:04:00;5.20;;;2.30;;
65658;SDS011;60181;53.258;6.932;2022-12-15T16:08:30;5.20;;;2.30;;
65658;SDS011;60181;53.258;6.932;2022-12-15T16:12:56;5.20;;;2.30;;
65658;SDS011;60181;53.258;6.932;2022-12-15T16:17:24;5.60;;;2.50;;
65658;SDS011;60181;53.258;6.932;2022-12-15T16:21:52;5.60;;;2.50;;
65658;SDS011;60181;53.258;6.932;2022-12-15T16:26:22;4.60;;;2.40;;
65658;SDS011;60181;53.258;6.932;2022-12-15T16:30:48;4.60;;;2.40;;
65658;SDS011;60181;53.258;6.932;2022-12-15T16:35:16;5.70;;;2.40;;
65658;SDS011;60181;53.258;6.932;2022-12-15T16:39:44;5.70;;;2.40;;
65658;SDS011;60181;53.258;6.932;2022-12-15T16:44:12;5.00;;;2.60;;
65658;SDS011;60181;53.258;6.932;2022-12-15T16:48:40;5.00;;;2.60;;
65658;SDS011;60181;53.258;6.932;2022-12-15T16:53:12;5.00;;;2.60;;
65658;SDS011;60181;53.258;6.932;2022-12-15T16:57:36;5.30;;;2.50;;
65658;SDS011;60181;53.258;6.932;2022-12-15T17:02:15;5.30;;;2.50;;
65658;SDS011;60181;53.258;6.932;2022-12-15T17:06:32;4.70;;;2.60;;
65658;SDS011;60181;53.258;6.932;2022-12-15T17:11:00;4.70;;;2.60;;
65658;SDS011;60181;53.258;6.932;2022-12-15T17:15:28;6.60;;;2.80;;
65658;SDS011;60181;53.258;6.932;2022-12-15T17:19:56;6.60;;;2.80;;
65658;SDS011;60181;53.258;6.932;2022-12-15T17:24:24;5.60;;;2.70;;
65658;SDS011;60181;53.258;6.932;2022-12-15T17:28:52;5.60;;;2.70;;
65658;SDS011;60181;53.258;6.932;2022-12-15T17:33:21;5.60;;;2.90;;
65658;SDS011;60181;53.258;6.932;2022-12-15T17:37:47;5.60;;;2.90;;
65658;SDS011;60181;53.258;6.932;2022-12-15T17:42:17;5.60;;;2.90;;
65658;SDS011;60181;53.258;6.932;2022-12-15T17:46:43;6.00;;;3.10;;
65658;SDS011;60181;53.258;6.932;2022-12-15T17:51:13;6.00;;;3.10;;
65658;SDS011;60181;53.258;6.932;2022-12-15T17:55:39;5.70;;;3.20;;
65658;SDS011;60181;53.258;6.932;2022-12-15T18:00:14;5.70;;;3.20;;
65658;SDS011;60181;53.258;6.932;2022-12-15T18:04:35;6.90;;;3.30;;
65658;SDS011;60181;53.258;6.932;2022-12-15T18:09:04;6.90;;;3.30;;
65658;SDS011;60181;53.258;6.932;2022-12-15T18:13:32;5.80;;;3.10;;
65658;SDS011;60181;53.258;6.932;2022-12-15T18:17:59;5.80;;;3.10;;
65658;SDS011;60181;53.258;6.932;2022-12-15T18:22:27;5.80;;;3.10;;
65658;SDS011;60181;53.258;6.932;2022-12-15T18:26:55;6.20;;;3.20;;
65658;SDS011;60181;53.258;6.932;2022-12-15T18:31:24;6.20;;;3.20;;
65658;SDS011;60181;53.258;6.932;2022-12-15T18:35:51;7.30;;;3.30;;
65658;SDS011;60181;53.258;6.932;2022-12-15T18:40:20;7.30;;;3.30;;
65658;SDS011;60181;53.258;6.932;2022-12-15T18:44:49;7.50;;;3.30;;
65658;SDS011;60181;53.258;6.932;2022-12-15T18:49:16;7.50;;;3.30;;
65658;SDS011;60181;53.258;6.932;2022-12-15T18:53:43;6.60;;;3.40;;
65658;SDS011;60181;53.258;6.932;2022-12-15T18:58:22;6.60;;;3.40;;
65658;SDS011;60181;53.258;6.932;2022-12-15T19:02:42;6.60;;;3.40;;
65658;SDS011;60181;53.258;6.932;2022-12-15T19:07:08;6.20;;;3.50;;
65658;SDS011;60181;53.258;6.932;2022-12-15T19:11:35;6.20;;;3.50;;
65658;SDS011;60181;53.258;6.932;2022-12-15T19:16:05;6.40;;;3.40;;
65658;SDS011;60181;53.258;6.932;2022-12-15T19:20:31;6.40;;;3.40;;
65658;SDS011;60181;53.258;6.932;2022-12-15T19:24:59;6.50;;;3.60;;
65658;SDS011;60181;53.258;6.932;2022-12-15T19:29:27;6.50;;;3.60;;
65658;SDS011;60181;53.258;6.932;2022-12-15T19:33:55;7.80;;;3.90;;
65658;SDS011;60181;53.258;6.932;2022-12-15T19:38:24;7.80;;;3.90;;
65658;SDS011;60181;53.258;6.932;2022-12-15T19:42:51;7.80;;;3.90;;
65658;SDS011;60181;53.258;6.932;2022-12-15T19:47:19;7.80;;;4.00;;
65658;SDS011;60181;53.258;6.932;2022-12-15T19:51:47;7.80;;;4.00;;
65658;SDS011;60181;53.258;6.932;2022-12-15T19:56:19;8.20;;;4.00;;
65658;SDS011;60181;53.258;6.932;2022-12-15T20:00:43;8.20;;;4.00;;
65658;SDS011;60181;53.258;6.932;2022-12-15T20:05:11;7.00;;;4.10;;
65658;SDS011;60181;53.258;6.932;2022-12-15T20:09:39;7.00;;;4.10;;
65658;SDS011;60181;53.258;6.932;2022-12-15T20:14:08;8.60;;;3.90;;
65658;SDS011;60181;53.258;6.932;2022-12-15T20:18:35;8.60;;;3.90;;
65658;SDS011;60181;53.258;6.932;2022-12-15T20:23:05;8.60;;;3.90;;
65658;SDS011;60181;53.258;6.932;2022-12-15T20:27:31;7.90;;;4.20;;
65658;SDS011;60181;53.258;6.932;2022-12-15T20:31:59;7.90;;;4.20;;
65658;SDS011;60181;53.258;6.932;2022-12-15T20:36:28;7.20;;;4.40;;
65658;SDS011;60181;53.258;6.932;2022-12-15T20:40:55;7.20;;;4.40;;
65658;SDS011;60181;53.258;6.932;2022-12-15T20:45:24;9.70;;;4.80;;
65658;SDS011;60181;53.258;6.932;2022-12-15T20:49:52;9.70;;;4.80;;
65658;SDS011;60181;53.258;6.932;2022-12-15T20:54:20;9.20;;;4.70;;
65658;SDS011;60181;53.258;6.932;2022-12-15T20:58:48;9.20;;;4.70;;
65658;SDS011;60181;53.258;6.932;2022-12-15T21:07:43;9.00;;;4.80;;
65658;SDS011;60181;53.258;6.932;2022-12-15T21:12:18;9.00;;;4.80;;
65658;SDS011;60181;53.258;6.932;2022-12-15T21:16:39;8.10;;;4.80;;
65658;SDS011;60181;53.258;6.932;2022-12-15T21:21:17;8.10;;;4.80;;
65658;SDS011;60181;53.258;6.932;2022-12-15T21:25:35;8.50;;;5.00;;
65658;SDS011;60181;53.258;6.932;2022-12-15T21:30:08;8.50;;;5.00;;
65658;SDS011;60181;53.258;6.932;2022-12-15T21:34:31;9.60;;;5.00;;
65658;SDS011;60181;53.258;6.932;2022-12-15T21:38:59;9.60;;;5.00;;
65658;SDS011;60181;53.258;6.932;2022-12-15T21:43:29;10.40;;;5.50;;
65658;SDS011;60181;53.258;6.932;2022-12-15T21:47:55;10.40;;;5.50;;
65658;SDS011;60181;53.258;6.932;2022-12-15T21:52:23;10.40;;;5.50;;
65658;SDS011;60181;53.258;6.932;2022-12-15T21:56:51;9.70;;;5.20;;
65658;SDS011;60181;53.258;6.932;2022-12-15T22:01:20;9.70;;;5.20;;
65658;SDS011;60181;53.258;6.932;2022-12-15T22:05:47;10.80;;;5.60;;
65658;SDS011;60181;53.258;6.932;2022-12-15T22:10:16;10.80;;;5.60;;
65658;SDS011;60181;53.258;6.932;2022-12-15T22:14:43;11.40;;;5.40;;
65658;SDS011;60181;53.258;6.932;2022-12-15T22:19:11;11.40;;;5.40;;
65658;SDS011;60181;53.258;6.932;2022-12-15T22:23:39;16.00;;;5.90;;
65658;SDS011;60181;53.258;6.932;2022-12-15T22:28:15;16.00;;;5.90;;
65658;SDS011;60181;53.258;6.932;2022-12-15T22:32:35;16.00;;;5.90;;
65658;SDS011;60181;53.258;6.932;2022-12-15T22:37:03;12.60;;;6.20;;
65658;SDS011;60181;53.258;6.932;2022-12-15T22:41:31;12.60;;;6.20;;
65658;SDS011;60181;53.258;6.932;2022-12-15T22:45:59;12.60;;;6.30;;
65658;SDS011;60181;53.258;6.932;2022-12-15T22:50:27;12.60;;;6.30;;
65658;SDS011;60181;53.258;6.932;2022-12-15T22:54:55;13.90;;;6.50;;
65658;SDS011;60181;53.258;6.932;2022-12-15T22:59:27;13.90;;;6.50;;
65658;SDS011;60181;53.258;6.932;2022-12-15T23:03:51;14.70;;;6.80;;
65658;SDS011;60181;53.258;6.932;2022-12-15T23:08:19;14.70;;;6.80;;
65658;SDS011;60181;53.258;6.932;2022-12-15T23:12:47;14.70;;;6.80;;
65658;SDS011;60181;53.258;6.932;2022-12-15T23:17:15;16.60;;;7.10;;
65658;SDS011;60181;53.258;6.932;2022-12-15T23:21:43;16.60;;;7.10;;
65658;SDS011;60181;53.258;6.932;2022-12-15T23:26:11;13.20;;;6.80;;
65658;SDS011;60181;53.258;6.932;2022-12-15T23:30:39;13.20;;;6.80;;
65658;SDS011;60181;53.258;6.932;2022-12-15T23:35:07;12.50;;;7.20;;
65658;SDS011;60181;53.258;6.932;2022-12-15T23:39:35;12.50;;;7.20;;
65658;SDS011;60181;53.258;6.932;2022-12-15T23:44:03;13.70;;;7.30;;
65658;SDS011;60181;53.258;6.932;2022-12-15T23:48:32;13.70;;;7.30;;
65658;SDS011;60181;53.258;6.932;2022-12-15T23:52:59;13.70;;;7.30;;
65658;SDS011;60181;53.258;6.932;2022-12-15T23:57:27;13.90;;;7.20;;
